createdAt,value
2019-02-20T00:00:28.859Z,98327.55
2019-02-20T00:02:57.213Z,98326.34
2019-02-20T00:05:25.597Z,98324.37
2019-02-20T00:07:53.964Z,98323.84
2019-02-20T00:10:22.283Z,98331.75
2019-02-20T00:12:50.594Z,98328.34
2019-02-20T00:15:18.918Z,98333.89
2019-02-20T00:17:47.223Z,98331.81
2019-02-20T00:20:15.691Z,98329.49
2019-02-20T00:22:43.970Z,98334.98
2019-02-20T00:25:12.300Z,98331.86
2019-02-20T00:27:40.675Z,98332.19
2019-02-20T00:30:10.728Z,98334.81
2019-02-20T00:32:39.094Z,98336.22
2019-02-20T00:35:07.527Z,98342.50
2019-02-20T00:37:35.890Z,98339.56
2019-02-20T00:40:07.372Z,98346.91
2019-02-20T00:42:35.755Z,98352.72
2019-02-20T00:45:07.039Z,98344.35
2019-02-20T00:47:49.202Z,98349.64
2019-02-20T00:50:18.329Z,98346.33
2019-02-20T00:52:50.139Z,98350.48
2019-02-20T00:55:18.488Z,98361.70
2019-02-20T00:57:46.812Z,98360.02
2019-02-20T01:00:16.361Z,98360.89
2019-02-20T01:02:44.873Z,98362.03
2019-02-20T01:05:13.209Z,98366.14
2019-02-20T01:07:41.683Z,98365.61
2019-02-20T01:10:10.125Z,98277.53
2019-02-20T01:12:38.489Z,98368.77
2019-02-20T01:15:09.533Z,98364.59
2019-02-20T01:17:37.849Z,98371.55
2019-02-20T01:20:08.938Z,98369.18
2019-02-20T01:22:37.333Z,98363.17
2019-02-20T01:25:06.530Z,98365.11
2019-02-20T01:27:35.009Z,98370.05
2019-02-20T01:30:04.349Z,98366.66
2019-02-20T01:32:32.731Z,98363.25
2019-02-20T01:35:01.094Z,98362.58
2019-02-20T01:37:29.474Z,98363.23
2019-02-20T01:39:57.761Z,98361.20
2019-02-20T01:42:26.167Z,98362.45
2019-02-20T01:44:54.483Z,98364.95
2019-02-20T01:47:22.758Z,98363.62
2019-02-20T01:49:52.197Z,98364.16
2019-02-20T01:52:20.500Z,98360.98
2019-02-20T01:54:48.820Z,98355.30
2019-02-20T01:57:17.124Z,98356.41
2019-02-20T01:59:45.487Z,98357.78
2019-02-20T02:02:14.203Z,98349.10
2019-02-20T02:04:42.519Z,98351.84
2019-02-20T02:07:10.851Z,98352.17
2019-02-20T02:09:39.181Z,98347.48
2019-02-20T02:12:07.624Z,98350.05
2019-02-20T02:14:35.950Z,98343.99
2019-02-20T02:17:04.481Z,98345.91
2019-02-20T02:19:32.947Z,98353.24
2019-02-20T02:22:02.909Z,98348.39
2019-02-20T02:24:31.248Z,98351.07
2019-02-20T02:26:59.625Z,98348.95
2019-02-20T02:29:27.996Z,98351.31
2019-02-20T02:31:56.368Z,98352.77
2019-02-20T02:34:24.714Z,98352.53
2019-02-20T02:36:53.006Z,98350.09
2019-02-20T02:39:21.481Z,98369.56
2019-02-20T02:41:49.843Z,98361.77
2019-02-20T02:44:18.183Z,98362.09
2019-02-20T02:46:46.725Z,98356.01
2019-02-20T02:49:15.049Z,98351.50
2019-02-20T02:51:43.466Z,98355.20
2019-02-20T02:54:11.735Z,98348.89
2019-02-20T02:56:40.147Z,98344.53
2019-02-20T02:59:08.453Z,98339.48
2019-02-20T03:01:37.070Z,98339.13
2019-02-20T03:04:05.432Z,98346.08
2019-02-20T03:06:33.760Z,98335.34
2019-02-20T03:09:02.043Z,98343.03
2019-02-20T03:11:30.369Z,98342.05
2019-02-20T03:13:58.717Z,98341.60
2019-02-20T03:16:27.065Z,98348.09
2019-02-20T03:18:55.401Z,98347.69
2019-02-20T03:21:23.733Z,98341.47
2019-02-20T03:23:52.090Z,98343.72
2019-02-20T03:26:21.313Z,98340.34
2019-02-20T03:28:49.596Z,98337.53
2019-02-20T03:31:17.930Z,98341.55
2019-02-20T03:33:46.367Z,98341.87
2019-02-20T03:36:14.699Z,98342.83
2019-02-20T03:38:42.987Z,98342.44
2019-02-20T03:41:11.292Z,98336.83
2019-02-20T03:43:39.599Z,98340.70
2019-02-20T03:46:07.926Z,98346.09
2019-02-20T03:48:36.759Z,98339.89
2019-02-20T03:51:05.187Z,98337.19
2019-02-20T03:53:33.762Z,98341.23
2019-02-20T03:56:02.098Z,98339.90
2019-02-20T03:58:30.382Z,98338.29
2019-02-20T04:00:58.668Z,98345.72
2019-02-20T04:03:27.055Z,98353.16
2019-02-20T04:05:55.452Z,98348.48
2019-02-20T04:08:23.803Z,98351.54
2019-02-20T04:10:52.121Z,98348.22
2019-02-20T04:13:20.475Z,98346.66
2019-02-20T04:15:48.754Z,98344.92
2019-02-20T04:18:17.072Z,98347.20
2019-02-20T04:20:45.359Z,98343.95
2019-02-20T04:23:13.676Z,98353.70
2019-02-20T04:25:41.982Z,98350.28
2019-02-20T04:28:10.465Z,98353.16
2019-02-20T04:30:38.755Z,98360.39
2019-02-20T04:33:07.075Z,98345.80
2019-02-20T04:35:35.378Z,98353.60
2019-02-20T04:38:03.703Z,98359.95
2019-02-20T04:40:31.998Z,98351.55
2019-02-20T04:43:00.324Z,98361.05
2019-02-20T04:45:28.604Z,98360.11
2019-02-20T04:47:56.948Z,98367.03
2019-02-20T04:50:25.247Z,98367.63
2019-02-20T04:52:53.568Z,98369.47
2019-02-20T04:55:21.931Z,98369.11
2019-02-20T04:57:53.408Z,98366.44
2019-02-20T05:00:21.940Z,98367.03
2019-02-20T05:02:50.250Z,98363.48
2019-02-20T05:05:18.761Z,98359.73
2019-02-20T05:07:47.124Z,98361.70
2019-02-20T05:10:15.420Z,98369.11
2019-02-20T05:12:43.718Z,98371.52
2019-02-20T05:15:12.031Z,98367.12
2019-02-20T05:17:40.329Z,98368.63
2019-02-20T05:20:09.395Z,98369.44
2019-02-20T05:22:37.883Z,98365.20
2019-02-20T05:25:06.420Z,98364.80
2019-02-20T05:27:34.724Z,98361.10
2019-02-20T05:30:03.165Z,98361.55
2019-02-20T05:32:31.534Z,98363.16
2019-02-20T05:35:00.528Z,98367.70
2019-02-20T05:37:28.982Z,98363.10
2019-02-20T05:39:57.315Z,98370.35
2019-02-20T05:42:25.754Z,98367.73
2019-02-20T05:44:54.108Z,98376.80
2019-02-20T05:47:22.394Z,98377.50
2019-02-20T05:49:51.046Z,98377.20
2019-02-20T05:52:19.338Z,98381.05
2019-02-20T05:54:47.736Z,98378.83
2019-02-20T05:57:16.036Z,98383.72
2019-02-20T05:59:44.411Z,98387.13
2019-02-20T06:02:12.724Z,98388.30
2019-02-20T06:04:41.145Z,98380.63
2019-02-20T06:07:09.665Z,98385.78
2019-02-20T06:09:37.993Z,98391.55
2019-02-20T06:12:06.288Z,98393.31
2019-02-20T06:14:35.613Z,98396.52
2019-02-20T06:17:03.987Z,98390.68
2019-02-20T06:19:32.297Z,98395.19
2019-02-20T06:22:00.625Z,98391.77
2019-02-20T06:24:28.950Z,98396.53
2019-02-20T06:26:57.269Z,98405.91
2019-02-20T06:29:25.628Z,98398.64
2019-02-20T06:31:53.962Z,98399.30
2019-02-20T06:34:22.258Z,98400.48
2019-02-20T06:36:50.584Z,98406.83
2019-02-20T06:39:18.879Z,98410.75
2019-02-20T06:41:47.195Z,98414.77
2019-02-20T06:44:15.531Z,98422.56
2019-02-20T06:46:43.929Z,98423.84
2019-02-20T06:49:12.231Z,98426.14
2019-02-20T06:51:40.579Z,98431.27
2019-02-20T06:54:08.890Z,98432.38
2019-02-20T06:56:37.232Z,98431.39
2019-02-20T06:59:05.533Z,98434.27
2019-02-20T07:01:33.859Z,98437.67
2019-02-20T07:04:02.273Z,98436.78
2019-02-20T07:06:39.375Z,98437.80
2019-02-20T07:09:36.048Z,98443.00
2019-02-20T07:12:07.538Z,98435.59
2019-02-20T07:14:58.422Z,98443.38
2019-02-20T07:17:47.952Z,98443.80
2019-02-20T07:20:25.513Z,98445.05
2019-02-20T07:22:56.997Z,98443.92
2019-02-20T07:25:28.619Z,98451.13
2019-02-20T07:28:00.194Z,98455.89
2019-02-20T07:30:28.736Z,98457.67
2019-02-20T07:32:57.084Z,98461.76
2019-02-20T07:35:25.377Z,98465.55
2019-02-20T07:37:55.452Z,98466.00
2019-02-20T07:40:23.801Z,98465.89
2019-02-20T07:42:52.141Z,98462.19
2019-02-20T07:45:20.563Z,98462.30
2019-02-20T07:47:51.393Z,98464.23
2019-02-20T07:50:19.821Z,98469.96
2019-02-20T07:52:49.160Z,98466.94
2019-02-20T07:55:17.726Z,98464.05
2019-02-20T07:57:46.079Z,98445.47
2019-02-20T08:00:15.214Z,98463.36
2019-02-20T08:02:43.637Z,98465.17
2019-02-20T08:05:12.071Z,98467.41
2019-02-20T08:07:40.518Z,98472.56
2019-02-20T08:10:11.060Z,98477.94
2019-02-20T08:12:39.469Z,98474.08
2019-02-20T08:15:10.253Z,98473.70
2019-02-20T08:17:38.728Z,98470.28
2019-02-20T08:20:09.103Z,98479.03
2019-02-20T08:22:37.453Z,98484.83
2019-02-20T08:25:07.293Z,98474.03
2019-02-20T08:27:35.741Z,98463.92
2019-02-20T08:30:06.447Z,98463.99
2019-02-20T08:32:34.898Z,98465.70
2019-02-20T08:35:03.380Z,98474.91
2019-02-20T08:37:31.696Z,98484.79
2019-02-20T08:40:00.033Z,98487.27
2019-02-20T08:42:28.434Z,98486.02
2019-02-20T08:44:56.774Z,98486.02
2019-02-20T08:47:25.284Z,98485.67
2019-02-20T08:49:54.457Z,98501.99
2019-02-20T08:52:23.090Z,98487.00
2019-02-20T08:54:52.019Z,98490.23
2019-02-20T08:57:20.527Z,98478.11
2019-02-20T08:59:49.350Z,98481.04
2019-02-20T09:02:17.729Z,98486.33
2019-02-20T09:04:46.036Z,98491.77
2019-02-20T09:07:14.716Z,98489.28
2019-02-20T09:09:43.020Z,98501.23
2019-02-20T09:12:11.641Z,98489.52
2019-02-20T09:14:40.241Z,98492.75
2019-02-20T09:17:08.560Z,98487.16
2019-02-20T09:19:36.869Z,98496.96
2019-02-20T09:22:05.297Z,98497.11
2019-02-20T09:24:33.676Z,98497.11
2019-02-20T09:30:28.314Z,98502.61
2019-02-20T09:32:51.573Z,98498.34
2019-02-20T09:35:20.632Z,98496.58
2019-02-20T09:37:49.003Z,98498.81
2019-02-20T09:40:18.572Z,98499.67
2019-02-20T09:42:51.684Z,98496.77
2019-02-20T09:45:20.097Z,98504.38
2019-02-20T09:47:48.428Z,98504.38
2019-02-20T09:50:16.827Z,98513.58
2019-02-20T09:52:52.012Z,98501.88
2019-02-20T09:55:15.279Z,98508.97
2019-02-20T09:57:43.718Z,98506.84
2019-02-20T10:00:20.277Z,98506.84
2019-02-20T10:02:50.088Z,98505.83
2019-02-20T10:05:18.404Z,98505.83
2019-02-20T10:07:46.746Z,98502.84
2019-02-20T10:10:15.110Z,98505.27
2019-02-20T10:12:43.529Z,98505.53
2019-02-20T10:15:17.323Z,98502.31
2019-02-20T10:17:45.769Z,98517.34
2019-02-20T10:20:14.468Z,98517.34
2019-02-20T10:22:42.770Z,98517.46
2019-02-20T10:25:13.121Z,98517.46
2019-02-20T10:27:41.648Z,98523.84
2019-02-20T10:30:13.380Z,98516.27
2019-02-20T10:32:41.692Z,98512.31
2019-02-20T10:35:10.741Z,98516.95
2019-02-20T10:37:39.140Z,98516.97
2019-02-20T10:40:11.522Z,98512.92
2019-02-20T10:42:39.910Z,98514.56
2019-02-20T10:45:10.991Z,98517.73
2019-02-20T10:47:39.313Z,98514.09
2019-02-20T10:50:11.955Z,98517.09
2019-02-20T10:52:40.317Z,98520.58
2019-02-20T10:55:09.679Z,98515.77
2019-02-20T10:57:38.146Z,98517.34
2019-02-20T11:00:11.644Z,98520.65
2019-02-20T11:02:39.959Z,98523.96
2019-02-20T11:05:08.356Z,98519.88
2019-02-20T11:07:36.817Z,98522.41
2019-02-20T11:10:07.309Z,98519.52
2019-02-20T11:12:35.691Z,98519.39
2019-02-20T11:15:05.268Z,98506.41
2019-02-20T11:17:33.651Z,98508.51
2019-02-20T11:20:02.078Z,98512.55
2019-02-20T11:22:32.072Z,98502.88
2019-02-20T11:25:00.550Z,98510.31
2019-02-20T11:27:28.952Z,98502.48
2019-02-20T11:29:57.342Z,98497.26
2019-02-20T11:32:25.737Z,98494.11
2019-02-20T11:34:54.411Z,98495.23
2019-02-20T11:37:23.034Z,98489.59
2019-02-20T11:39:51.339Z,98490.67
2019-02-20T11:42:19.661Z,98495.50
2019-02-20T11:44:47.972Z,98496.11
2019-02-20T11:47:16.318Z,98487.38
2019-02-20T11:49:46.462Z,98497.97
2019-02-20T11:52:14.801Z,98493.39
2019-02-20T11:54:44.756Z,98487.16
2019-02-20T11:57:13.994Z,98488.25
2019-02-20T11:59:42.351Z,98490.63
2019-02-20T12:02:12.796Z,98493.70
2019-02-20T12:04:42.889Z,98497.55
2019-02-20T12:07:11.626Z,98496.39
2019-02-20T12:09:40.161Z,98499.20
2019-02-20T12:12:09.493Z,98489.05
2019-02-20T12:14:37.822Z,98503.59
2019-02-20T12:17:06.284Z,98497.92
2019-02-20T12:19:34.779Z,98497.31
2019-02-20T12:22:03.304Z,98504.36
2019-02-20T12:24:32.903Z,98500.27
2019-02-20T12:27:01.440Z,98497.45
2019-02-20T12:29:30.173Z,98494.20
2019-02-20T12:31:58.606Z,98496.40
2019-02-20T12:34:26.979Z,98501.17
2019-02-20T12:36:56.923Z,98495.53
2019-02-20T12:39:25.368Z,98493.34
2019-02-20T12:41:53.885Z,98498.83
2019-02-20T12:44:26.029Z,98487.45
2019-02-20T12:46:56.164Z,98492.39
2019-02-20T12:49:24.548Z,98483.83
2019-02-20T12:51:53.806Z,98490.55
2019-02-20T12:54:26.021Z,98491.75
2019-02-20T12:56:55.338Z,98483.83
2019-02-20T12:59:28.132Z,98488.07
2019-02-20T13:01:57.353Z,98485.98
2019-02-20T13:04:26.850Z,98485.66
2019-02-20T13:06:59.573Z,98480.86
2019-02-20T13:09:28.027Z,98476.95
2019-02-20T13:11:56.854Z,98479.63
2019-02-20T13:14:35.489Z,98478.64
2019-02-20T13:17:04.354Z,98477.52
2019-02-20T13:19:47.261Z,98473.20
2019-02-20T13:22:19.119Z,98478.32
2019-02-20T13:24:48.413Z,98476.81
2019-02-20T13:27:22.659Z,98467.88
2019-02-20T13:29:54.055Z,98461.27
2019-02-20T13:32:23.544Z,98462.26
2019-02-20T13:34:54.457Z,98462.94
2019-02-20T13:37:27.950Z,98465.09
2019-02-20T13:40:03.899Z,98468.75
2019-02-20T13:42:36.719Z,98470.30
2019-02-20T13:45:07.514Z,98467.09
2019-02-20T13:47:36.688Z,98474.83
2019-02-20T13:50:11.729Z,98466.53
2019-02-20T13:52:51.612Z,98468.89
2019-02-20T13:55:11.327Z,98468.81
2019-02-20T13:57:40.360Z,98470.50
2019-02-20T14:00:13.321Z,98475.72
2019-02-20T14:02:46.801Z,98470.50
2019-02-20T14:05:15.541Z,98468.86
2019-02-20T14:07:49.043Z,98467.58
2019-02-20T14:10:19.591Z,98469.28
2019-02-20T14:12:48.872Z,98470.87
2019-02-20T14:15:18.037Z,98478.44
2019-02-20T14:17:47.048Z,98472.61
2019-02-20T14:20:16.115Z,98472.99
2019-02-20T14:22:45.848Z,98471.78
2019-02-20T14:25:14.357Z,98472.95
2019-02-20T14:27:45.110Z,98476.17
2019-02-20T14:30:13.508Z,98470.11
2019-02-20T14:32:41.846Z,98468.52
2019-02-20T14:35:12.240Z,98469.90
2019-02-20T14:37:40.833Z,98470.95
2019-02-20T14:40:09.459Z,98469.28
2019-02-20T14:42:37.894Z,98470.86
2019-02-20T14:45:09.549Z,98475.72
2019-02-20T14:47:38.502Z,98470.63
2019-02-20T14:50:09.675Z,98473.76
2019-02-20T14:52:38.348Z,98477.78
2019-02-20T14:55:08.540Z,98479.87
2019-02-20T14:57:36.881Z,98469.48
2019-02-20T15:00:12.283Z,98469.98
2019-02-20T15:02:43.691Z,98474.19
2019-02-20T15:05:12.228Z,98473.83
2019-02-20T15:07:40.786Z,98472.39
2019-02-20T15:10:10.207Z,98468.82
2019-02-20T15:12:38.606Z,98470.73
2019-02-20T15:15:10.844Z,98469.33
2019-02-20T15:17:39.598Z,98466.96
2019-02-20T15:20:11.135Z,98465.07
2019-02-20T15:22:39.625Z,98468.98
2019-02-20T15:25:09.338Z,98468.15
2019-02-20T15:27:37.705Z,98473.31
2019-02-20T15:30:14.429Z,98478.83
2019-02-20T15:32:42.809Z,98469.68
2019-02-20T15:35:11.303Z,98461.81
2019-02-20T15:37:39.607Z,98466.92
2019-02-20T15:40:10.893Z,98463.92
2019-02-20T15:42:39.518Z,98470.86
2019-02-20T15:45:11.138Z,98464.20
2019-02-20T15:47:39.662Z,98467.19
2019-02-20T15:50:15.347Z,98460.22
2019-02-20T15:52:44.053Z,98466.55
2019-02-20T15:55:12.938Z,98463.41
2019-02-20T15:57:41.419Z,98462.60
2019-02-20T16:00:16.221Z,98468.34
2019-02-20T16:02:44.807Z,98464.05
2019-02-20T16:05:13.718Z,98463.95
2019-02-20T16:07:42.148Z,98471.25
2019-02-20T16:10:11.164Z,98468.81
2019-02-20T16:12:39.706Z,98469.06
2019-02-20T16:15:11.990Z,98469.80
2019-02-20T16:17:41.329Z,98470.51
2019-02-20T16:20:11.852Z,98469.23
2019-02-20T16:22:40.391Z,98469.13
2019-02-20T16:25:12.094Z,98471.89
2019-02-20T16:27:46.722Z,98469.41
2019-02-20T16:30:14.702Z,98469.87
2019-02-20T16:32:43.189Z,98471.98
2019-02-20T16:35:12.543Z,98469.82
2019-02-20T16:37:41.370Z,98471.66
2019-02-20T16:40:12.852Z,98468.98
2019-02-20T16:42:41.354Z,98476.68
2019-02-20T16:45:24.776Z,98479.17
2019-02-20T16:47:53.711Z,98483.79
2019-02-20T16:50:22.283Z,98490.27
2019-02-20T16:52:50.910Z,98497.06
2019-02-20T16:55:19.686Z,98495.20
2019-02-20T16:57:56.351Z,98495.05
2019-02-20T17:00:21.118Z,98498.33
2019-02-20T17:02:49.938Z,98502.53
2019-02-20T17:05:18.571Z,98506.44
2019-02-20T17:07:46.995Z,98511.55
2019-02-20T17:10:17.538Z,98514.30
2019-02-20T17:12:46.011Z,98513.56
2019-02-20T17:15:16.333Z,98520.58
2019-02-20T17:17:44.751Z,98522.73
2019-02-20T17:20:18.073Z,98519.95
2019-02-20T17:22:46.734Z,98521.29
2019-02-20T17:25:15.446Z,98526.77
2019-02-20T17:27:43.790Z,98532.70
2019-02-20T17:30:18.986Z,98534.85
2019-02-20T17:32:47.820Z,98541.62
2019-02-20T17:35:17.287Z,98541.87
2019-02-20T17:37:45.875Z,98540.01
2019-02-20T17:40:14.711Z,98543.84
2019-02-20T17:42:43.025Z,98544.39
2019-02-20T17:45:19.275Z,98549.56
2019-02-20T17:47:48.151Z,98549.88
2019-02-20T17:50:21.586Z,98543.41
2019-02-20T17:52:49.979Z,98545.37
2019-02-20T17:55:18.363Z,98552.09
2019-02-20T17:57:46.848Z,98552.87
2019-02-20T18:00:19.216Z,98555.04
2019-02-20T18:02:47.492Z,98553.69
2019-02-20T18:05:15.895Z,98558.80
2019-02-20T18:07:49.696Z,98553.69
2019-02-20T18:10:14.646Z,98552.09
2019-02-20T18:12:45.578Z,98557.48
2019-02-20T18:15:18.201Z,98559.08
2019-02-20T18:17:46.789Z,98562.84
2019-02-20T18:20:15.418Z,98565.50
2019-02-20T18:22:43.897Z,98565.25
2019-02-20T18:25:12.829Z,98565.77
2019-02-20T18:27:41.213Z,98568.35
2019-02-20T18:30:12.308Z,98572.12
2019-02-20T18:32:40.647Z,98570.00
2019-02-20T18:35:14.120Z,98568.41
2019-02-20T18:37:42.552Z,98567.87
2019-02-20T18:40:14.167Z,98565.45
2019-02-20T18:42:42.609Z,98574.84
2019-02-20T18:45:12.765Z,98570.23
2019-02-20T18:47:42.758Z,98574.25
2019-02-20T18:50:12.988Z,98579.38
2019-02-20T18:52:41.527Z,98581.75
2019-02-20T18:55:13.786Z,98582.52
2019-02-20T18:57:42.244Z,98585.22
2019-02-20T19:00:20.809Z,98593.69
2019-02-20T19:02:49.282Z,98584.59
2019-02-20T19:05:19.071Z,98599.06
2019-02-20T19:07:48.003Z,98589.42
2019-02-20T19:10:22.834Z,98585.58
2019-02-20T19:12:57.030Z,98595.63
2019-02-20T19:15:34.549Z,98595.63
2019-02-20T19:18:12.340Z,98600.02
2019-02-20T19:20:52.704Z,98601.69
2019-02-20T19:23:27.302Z,98609.99
2019-02-20T19:26:14.164Z,98609.99
2019-02-20T19:28:54.451Z,98608.65
2019-02-20T19:31:48.739Z,98608.65
2019-02-20T19:34:25.943Z,98612.73
2019-02-20T19:37:15.641Z,98612.73
2019-02-20T19:40:20.762Z,98604.22
2019-02-20T19:43:27.079Z,98611.28
2019-02-20T19:50:17.995Z,98620.36
2019-02-20T19:56:29.834Z,98635.27
2019-02-20T19:59:18.295Z,98641.25
2019-02-20T20:02:28.164Z,98641.25
2019-02-20T20:05:22.536Z,98628.84
2019-02-20T20:08:16.810Z,98638.72
2019-02-20T20:18:19.111Z,98643.02
2019-02-20T20:21:22.533Z,98643.23
2019-02-20T20:27:58.062Z,98655.60
2019-02-20T20:30:35.694Z,98660.66
2019-02-20T20:33:30.258Z,98660.66
2019-02-20T20:36:13.801Z,98661.66
2019-02-20T20:39:07.965Z,98667.30
2019-02-20T20:41:42.074Z,98666.43
2019-02-20T20:44:31.477Z,98668.58
2019-02-20T20:47:17.840Z,98670.22
2019-02-20T20:49:58.141Z,98676.53
